createdAt,value
2023-01-03T00:04:49.830Z,12.19
2023-01-03T00:09:51.491Z,12.32
2023-01-03T00:14:52.939Z,12.14
2023-01-03T00:19:54.824Z,12.22
2023-01-03T00:24:56.270Z,12.24
2023-01-03T00:29:57.708Z,12.26
2023-01-03T00:35:04.759Z,12.25
2023-01-03T00:40:07.288Z,11.96
2023-01-03T00:45:10.676Z,11.97
2023-01-03T00:50:12.249Z,11.78
2023-01-03T00:55:13.757Z,11.79
2023-01-03T01:00:15.518Z,11.63
2023-01-03T01:05:17.049Z,11.65
2023-01-03T01:10:20.168Z,11.66
2023-01-03T01:15:21.932Z,11.63
2023-01-03T01:20:23.362Z,11.55
2023-01-03T01:25:24.843Z,11.36
2023-01-03T01:30:26.253Z,11.41
2023-01-03T01:35:27.715Z,11.09
2023-01-03T01:40:31.584Z,11.07
2023-01-03T01:45:35.247Z,10.95
2023-01-03T01:50:54.354Z,10.94
2023-01-03T01:56:22.060Z,10.81
2023-01-03T02:01:24.964Z,10.81
2023-01-03T02:06:27.836Z,11.07
2023-01-03T02:11:48.153Z,10.88
2023-01-03T02:17:10.471Z,10.71
2023-01-03T02:22:49.230Z,10.86
2023-01-03T02:28:08.141Z,10.94
2023-01-03T02:33:27.917Z,10.94
2023-01-03T02:38:50.084Z,10.82
2023-01-03T02:44:17.930Z,10.79
2023-01-03T02:49:28.080Z,10.75
2023-01-03T02:54:40.532Z,10.84
2023-01-03T02:59:53.259Z,10.87
2023-01-03T03:04:57.587Z,10.58
2023-01-03T03:10:17.672Z,10.90
2023-01-03T03:15:23.698Z,10.86
2023-01-03T03:20:43.480Z,11.01
2023-01-03T03:25:52.524Z,10.92
2023-01-03T03:30:58.844Z,10.72
2023-01-03T03:36:08.544Z,10.69
2023-01-03T03:41:57.081Z,10.85
2023-01-03T03:47:08.873Z,10.93
2023-01-03T03:52:15.930Z,10.77
2023-01-03T03:57:24.500Z,10.85
2023-01-03T04:02:29.547Z,10.92
2023-01-03T04:07:31.063Z,10.78
2023-01-03T04:12:32.503Z,10.76
2023-01-03T04:17:34.091Z,10.55
2023-01-03T04:22:35.589Z,10.41
2023-01-03T04:27:37.064Z,10.23
2023-01-03T04:32:38.979Z,10.34
2023-01-03T04:37:40.395Z,10.27
2023-01-03T04:43:00.503Z,10.26
2023-01-03T04:48:02.187Z,10.24
2023-01-03T04:53:03.645Z,10.24
2023-01-03T04:58:05.077Z,10.23
2023-01-03T05:03:06.535Z,10.17
2023-01-03T05:08:11.571Z,10.24
2023-01-03T05:13:12.991Z,10.15
2023-01-03T05:18:14.546Z,10.03
2023-01-03T05:23:36.786Z,10.22
2023-01-03T05:28:39.016Z,10.26
2023-01-03T05:33:41.160Z,10.23
2023-01-03T05:38:42.613Z,10.34
2023-01-03T05:43:44.498Z,10.41
2023-01-03T05:48:45.919Z,10.32
2023-01-03T05:53:47.464Z,10.42
2023-01-03T05:58:49.225Z,10.38
2023-01-03T06:03:50.691Z,10.31
2023-01-03T06:08:52.539Z,10.36
2023-01-03T06:13:54.040Z,10.49
2023-01-03T06:18:55.572Z,10.52
2023-01-03T06:23:57.059Z,10.56
2023-01-03T06:28:58.783Z,10.51
2023-01-03T06:34:00.241Z,10.34
2023-01-03T06:39:02.114Z,10.28
2023-01-03T06:44:03.713Z,10.30
2023-01-03T06:49:23.602Z,10.39
2023-01-03T06:54:27.039Z,10.42
2023-01-03T06:59:28.769Z,10.50
2023-01-03T07:04:30.286Z,10.52
2023-01-03T07:09:31.748Z,10.58
2023-01-03T07:14:33.165Z,10.52
2023-01-03T07:19:34.696Z,10.38
2023-01-03T07:24:36.108Z,10.42
2023-01-03T07:29:37.535Z,10.28
2023-01-03T07:34:38.958Z,10.32
2023-01-03T07:39:40.405Z,10.41
2023-01-03T07:44:41.821Z,10.46
2023-01-03T07:49:43.251Z,10.57
2023-01-03T07:54:44.704Z,10.65
2023-01-03T07:59:46.177Z,10.58
2023-01-03T08:04:47.632Z,10.51
2023-01-03T08:10:07.997Z,10.58
2023-01-03T08:15:09.701Z,10.76
2023-01-03T08:20:11.238Z,10.71
2023-01-03T08:25:12.654Z,10.59
2023-01-03T08:30:14.125Z,10.50
2023-01-03T08:35:16.895Z,10.43
2023-01-03T08:40:18.983Z,10.45
2023-01-03T08:45:20.620Z,10.71
2023-01-03T08:50:22.103Z,10.83
2023-01-03T08:55:23.596Z,10.68
2023-01-03T09:00:25.229Z,10.43
2023-01-03T09:05:28.182Z,10.72
2023-01-03T09:10:29.627Z,10.72
2023-01-03T09:15:31.100Z,10.79
2023-01-03T09:20:32.522Z,10.70
2023-01-03T09:25:37.360Z,10.62
2023-01-03T09:30:39.494Z,10.21
2023-01-03T09:35:41.003Z,10.52
2023-01-03T09:40:45.219Z,10.34
2023-01-03T09:45:52.160Z,10.30
2023-01-03T09:56:33.241Z,10.47
2023-01-03T10:02:02.977Z,10.73
2023-01-03T10:07:16.441Z,10.62
2023-01-03T10:12:47.146Z,10.78
2023-01-03T10:18:24.970Z,10.64
2023-01-03T10:23:26.530Z,10.14
2023-01-03T10:28:41.150Z,10.12
2023-01-03T10:33:47.998Z,10.04
2023-01-03T10:39:03.382Z,10.20
2023-01-03T10:44:05.258Z,10.30
2023-01-03T10:49:33.497Z,10.46
2023-01-03T10:54:41.006Z,10.08
2023-01-03T10:59:48.974Z,10.29
2023-01-03T11:05:12.333Z,10.51
2023-01-03T11:10:18.636Z,10.44
2023-01-03T11:15:38.727Z,10.66
2023-01-03T11:20:49.827Z,10.50
2023-01-03T11:26:06.803Z,10.48
2023-01-03T11:31:33.715Z,10.98
2023-01-03T11:36:48.734Z,10.94
2023-01-03T11:42:12.092Z,10.63
2023-01-03T11:47:34.986Z,10.23
2023-01-03T11:52:43.705Z,10.50
2023-01-03T11:58:02.266Z,10.66
2023-01-03T12:03:28.449Z,10.62
2023-01-03T12:08:43.016Z,11.23
2023-01-03T12:13:51.345Z,11.03
2023-01-03T12:19:11.923Z,10.89
2023-01-03T12:24:49.997Z,10.70
2023-01-03T12:29:57.399Z,10.68
2023-01-03T12:35:14.844Z,10.34
2023-01-03T12:40:26.231Z,10.74
2023-01-03T12:45:56.268Z,10.78
2023-01-03T12:50:57.830Z,10.82
2023-01-03T12:56:29.014Z,10.67
2023-01-03T13:01:40.916Z,10.67
2023-01-03T13:06:49.785Z,10.73
2023-01-03T13:11:54.433Z,10.35
2023-01-03T13:17:06.956Z,10.34
2023-01-03T13:22:45.489Z,10.22
2023-01-03T13:27:51.564Z,10.30
2023-01-03T13:33:00.220Z,9.81
2023-01-03T13:38:26.700Z,9.92
2023-01-03T13:43:37.734Z,9.78
2023-01-03T13:48:51.667Z,9.86
2023-01-03T13:54:21.972Z,9.91
2023-01-03T13:59:30.995Z,9.67
2023-01-03T14:04:56.866Z,9.71
2023-01-03T14:10:05.553Z,9.82
2023-01-03T14:15:25.845Z,9.81
2023-01-03T14:20:35.368Z,9.84
2023-01-03T14:25:42.464Z,9.73
2023-01-03T14:30:44.941Z,9.76
2023-01-03T14:35:46.497Z,9.66
2023-01-03T14:40:48.441Z,9.62
2023-01-03T14:45:54.701Z,9.60
2023-01-03T14:50:56.316Z,9.52
2023-01-03T14:55:58.637Z,9.45
2023-01-03T15:01:03.755Z,9.48
2023-01-03T15:06:21.493Z,9.60
2023-01-03T15:11:56.664Z,9.64
2023-01-03T15:17:14.791Z,9.65
2023-01-03T15:22:21.544Z,9.44
2023-01-03T15:27:41.212Z,9.49
2023-01-03T15:32:53.700Z,9.38
2023-01-03T15:37:56.114Z,9.43
2023-01-03T15:43:21.438Z,9.36
2023-01-03T15:48:22.958Z,9.48
2023-01-03T15:53:31.397Z,9.44
2023-01-03T15:58:35.476Z,9.35
2023-01-03T16:03:37.112Z,9.27
2023-01-03T16:08:40.337Z,9.19
2023-01-03T16:13:50.431Z,9.16
2023-01-03T16:18:52.685Z,9.14
2023-01-03T16:23:54.330Z,9.09
2023-01-03T16:28:56.470Z,9.07
2023-01-03T16:33:58.154Z,8.95
2023-01-03T16:39:00.322Z,8.86
2023-01-03T16:44:01.820Z,8.83
2023-01-03T16:49:03.434Z,8.70
2023-01-03T16:54:07.461Z,8.53
2023-01-03T16:59:15.074Z,8.48
2023-01-03T17:04:17.118Z,8.38
2023-01-03T17:09:22.721Z,8.29
2023-01-03T17:14:24.378Z,8.17
2023-01-03T17:24:48.676Z,8.04
2023-01-03T17:29:53.110Z,7.92
2023-01-03T17:34:54.577Z,7.85
2023-01-03T17:39:59.793Z,7.79
2023-01-03T17:45:19.803Z,7.67
2023-01-03T17:50:21.234Z,7.59
2023-01-03T17:55:26.473Z,7.50
2023-01-03T18:00:29.223Z,7.43
2023-01-03T18:05:30.993Z,7.34
2023-01-03T18:10:43.856Z,7.26
2023-01-03T18:15:47.509Z,7.26
2023-01-03T18:20:49.421Z,7.26
2023-01-03T18:25:51.667Z,7.32
2023-01-03T18:30:54.829Z,7.24
2023-01-03T18:35:56.424Z,7.20
2023-01-03T18:41:04.408Z,7.21
2023-01-03T18:46:14.493Z,7.09
2023-01-03T18:51:18.602Z,7.08
2023-01-03T18:56:28.703Z,6.89
2023-01-03T19:01:30.795Z,6.82
2023-01-03T19:06:33.792Z,6.78
2023-01-03T19:11:37.605Z,6.80
2023-01-03T19:16:39.243Z,6.82
2023-01-03T19:21:44.418Z,6.77
2023-01-03T19:26:50.590Z,6.64
2023-01-03T19:31:55.163Z,6.56
2023-01-03T19:36:57.930Z,6.62
2023-01-03T19:42:18.750Z,6.56
2023-01-03T19:47:20.771Z,6.60
2023-01-03T19:52:22.282Z,6.56
2023-01-03T19:57:33.966Z,6.58
2023-01-03T20:02:39.837Z,6.56
2023-01-03T20:07:41.685Z,6.60
2023-01-03T20:12:43.540Z,6.64
2023-01-03T20:17:45.032Z,6.64
2023-01-03T20:23:05.853Z,6.60
2023-01-03T20:28:16.968Z,6.57
2023-01-03T20:33:18.775Z,6.52
2023-01-03T20:38:27.364Z,6.47
2023-01-03T20:43:28.992Z,6.45
2023-01-03T20:48:30.508Z,6.37
2023-01-03T20:53:31.951Z,6.33
2023-01-03T20:58:33.358Z,6.30
2023-01-03T21:03:36.485Z,6.19
2023-01-03T21:08:56.325Z,6.11
2023-01-03T21:13:59.975Z,6.11
2023-01-03T21:19:22.889Z,6.12
2023-01-03T21:24:25.226Z,6.08
2023-01-03T21:29:27.775Z,6.08
2023-01-03T21:34:30.601Z,6.04
2023-01-03T21:39:32.020Z,5.98
2023-01-03T21:44:33.439Z,5.88
2023-01-03T21:49:34.850Z,5.71
2023-01-03T21:54:36.270Z,5.60
2023-01-03T21:59:37.917Z,5.58
2023-01-03T22:04:39.334Z,5.51
2023-01-03T22:09:59.366Z,5.47
2023-01-03T22:15:00.857Z,5.35
2023-01-03T22:20:03.267Z,5.25
2023-01-03T22:25:05.343Z,5.25
2023-01-03T22:30:09.365Z,5.16
2023-01-03T22:35:13.106Z,5.15
2023-01-03T22:40:17.184Z,5.08
2023-01-03T22:45:18.739Z,5.03
2023-01-03T22:50:20.289Z,4.97
2023-01-03T22:55:24.364Z,4.89
2023-01-03T23:00:28.145Z,4.84
2023-01-03T23:05:29.554Z,4.81
2023-01-03T23:10:30.994Z,4.79
2023-01-03T23:15:32.556Z,4.79
2023-01-03T23:20:36.148Z,4.87
2023-01-03T23:25:37.637Z,4.80
2023-01-03T23:30:39.140Z,4.76
2023-01-03T23:35:40.581Z,4.71
2023-01-03T23:40:43.359Z,4.63
2023-01-03T23:45:44.797Z,4.43
2023-01-03T23:50:46.351Z,4.45
2023-01-03T23:55:47.810Z,4.35
